Glard-1 — UBNK7 — position and weather

sailwx.info

Track history (hours):
 
Tides and Currents Weather Stations Pressure Air Temp Water Temp Dewpoint Dewpoint Depression Visibility Wind Speed Wind Dir Waves Ship Positions

Glard-1

Last reported at 2018-Jun-19 23:06 UTC. Time now 2018-Jun-24 22:36 UTC.
Position N 41°57' E 030°25'.

Length 140 m; draft 4 m.

Type: Ship (hazmat cat B). MMSI: 273339480.

Date/timePositionNaut miles runAvg speedWind from/ knotsBaromVisibWave heightAir tempDewpointWater temp
2018-Jun-19 23:06N 41°57' E 030°25'1 9.3
2018-Jun-19 22:59N 41°58' E 030°26'4 9.3
2018-Jun-19 22:30N 42°00' E 030°31'54 9.1
2018-Jun-19 16:31N 42°30' E 031°33'0 9.3
2018-Jun-19 16:29N 42°30' E 031°33'266 8.6
2018-Jun-18 09:40N 45°09' E 036°28'2 9.3
2018-Jun-18 09:28N 45°11' E 036°28'4 8.9
2018-Jun-18 09:00N 45°15' E 036°28'3 6.9
2018-Jun-18 08:30N 45°18' E 036°30'4 7.4
2018-Jun-18 08:00N 45°20' E 036°35'4 8.6
2018-Jun-18 07:30N 45°22' E 036°40'4 8.4
2018-Jun-18 07:00N 45°27' E 036°40'1 0.4
2018-Jun-18 03:26N 45°27' E 036°39'0 0.0
2018-Jun-18 02:59N 45°27' E 036°39'0 0.0
2018-Jun-18 02:29N 45°27' E 036°39'0 0.0
2018-Jun-18 01:50N 45°27' E 036°39'0 0.7
2018-Jun-18 01:12N 45°28' E 036°38'1 3.8
2018-Jun-18 01:00N 45°28' E 036°39'  
2018-Jun-13 18:20N 45°37' E 036°52'4 9.3
2018-Jun-13 17:55N 45°33' E 036°50'4 9.1
2018-Jun-13 17:29N 45°31' E 036°46'4 8.9
2018-Jun-13 17:00N 45°27' E 036°42'5 9.1
2018-Jun-13 16:30N 45°23' E 036°41'3 6.4
2018-Jun-13 16:00N 45°20' E 036°38'3 6.4
2018-Jun-13 15:30N 45°19' E 036°33'3 6.7
2018-Jun-13 15:00N 45°18' E 036°29'3 6.1
2018-Jun-13 14:30N 45°15' E 036°29'2 0.8
2018-Jun-13 12:14N 45°13' E 036°30'0 0.0
2018-Jun-13 11:50N 45°13' E 036°30'0 0.1
2018-Jun-13 10:08N 45°13' E 036°30'0 0.2
2018-Jun-13 10:00N 45°13' E 036°30'4 7.7
2018-Jun-13 09:28N 45°09' E 036°30'288 8.8
2018-Jun-12 00:48N 42°15' E 031°12'3 9.1
2018-Jun-12 00:30N 42°13' E 031°09'6 9.0
2018-Jun-11 23:51N 42°10' E 031°02'34 8.6
2018-Jun-11 19:49N 41°51' E 030°23'3 8.5
2018-Jun-11 19:29N 41°50' E 030°20'  
Track history (hours):
 
Tides and Currents Weather Stations Pressure Air Temp Water Temp Dewpoint Dewpoint Depression Visibility Wind Speed Wind Dir Waves Ship Positions

Glard-1

Last reported at 2018-Jun-19 23:06 UTC. Time now 2018-Jun-24 22:36 UTC.
Position N 41°57' E 030°25'.

Length 140 m; draft 4 m.

Type: Ship (hazmat cat B). MMSI: 273339480.

Date/timePositionNaut miles runAvg speedWind from/ knotsBaromVisibWave heightAir tempDewpointWater temp
2018-Jun-19 23:06N 41°57' E 030°25'1 9.3
2018-Jun-19 22:59N 41°58' E 030°26'4 9.3
2018-Jun-19 22:30N 42°00' E 030°31'54 9.1
2018-Jun-19 16:31N 42°30' E 031°33'0 9.3
2018-Jun-19 16:29N 42°30' E 031°33'266 8.6
2018-Jun-18 09:40N 45°09' E 036°28'2 9.3
2018-Jun-18 09:28N 45°11' E 036°28'4 8.9
2018-Jun-18 09:00N 45°15' E 036°28'3 6.9
2018-Jun-18 08:30N 45°18' E 036°30'4 7.4
2018-Jun-18 08:00N 45°20' E 036°35'4 8.6
2018-Jun-18 07:30N 45°22' E 036°40'4 8.4
2018-Jun-18 07:00N 45°27' E 036°40'1 0.4
2018-Jun-18 03:26N 45°27' E 036°39'0 0.0
2018-Jun-18 02:59N 45°27' E 036°39'0 0.0
2018-Jun-18 02:29N 45°27' E 036°39'0 0.0
2018-Jun-18 01:50N 45°27' E 036°39'0 0.7
2018-Jun-18 01:12N 45°28' E 036°38'1 3.8
2018-Jun-18 01:00N 45°28' E 036°39'  
2018-Jun-13 18:20N 45°37' E 036°52'4 9.3
2018-Jun-13 17:55N 45°33' E 036°50'4 9.1
2018-Jun-13 17:29N 45°31' E 036°46'4 8.9
2018-Jun-13 17:00N 45°27' E 036°42'5 9.1
2018-Jun-13 16:30N 45°23' E 036°41'3 6.4
2018-Jun-13 16:00N 45°20' E 036°38'3 6.4
2018-Jun-13 15:30N 45°19' E 036°33'3 6.7
2018-Jun-13 15:00N 45°18' E 036°29'3 6.1
2018-Jun-13 14:30N 45°15' E 036°29'2 0.8
2018-Jun-13 12:14N 45°13' E 036°30'0 0.0
2018-Jun-13 11:50N 45°13' E 036°30'0 0.1
2018-Jun-13 10:08N 45°13' E 036°30'0 0.2
2018-Jun-13 10:00N 45°13' E 036°30'4 7.7
2018-Jun-13 09:28N 45°09' E 036°30'288 8.8
2018-Jun-12 00:48N 42°15' E 031°12'3 9.1
2018-Jun-12 00:30N 42°13' E 031°09'6 9.0
2018-Jun-11 23:51N 42°10' E 031°02'34 8.6
2018-Jun-11 19:49N 41°51' E 030°23'3 8.5
2018-Jun-11 19:29N 41°50' E 030°20'  

Dump ship's entire track history